Latest Weather Observations for Coles Point

IDS60801

Issued at 9:35 am CST Sunday 31 August 2014 (issued every 30 minutes, with the page automatically refreshed every 10 minutes)

About weather observations | Map of weather stations | Latest weather observations for SA | Other Formats
Station Details ID: 018191 Name: COLES POINT Lat: -34.37 Lon: 135.37 Height: 28.0 m
Data from the previous 72 hours. | See also: Recent months at Coles Point
Date/Time
CST
Temp
°C
App
Temp
°C
Dew
Point
Rel
Hum
%
Delta-T
°C
Wind Press
QNH
hPa
Press
MSL
hPa
Rain
since 9 am
mm
Dir
 
Spd
km/h
Gust
km/h
Spd
kts
Gust
kts
31/09:30am 13.0 10.7 4.9 58 3.7 E 6 7 3 4 1014.0 1014.0 0.0
31/09:00am 12.8 9.0 3.7 54 4.1 E 13 20 7 11 1013.7 1013.7 0.0
31/08:30am 11.9 9.0 4.9 62 3.2 E 9 15 5 8 1013.6 1013.6 0.0
31/08:00am 11.6 7.7 3.4 57 3.6 NNE 13 17 7 9 1013.1 1013.1 0.0
31/07:30am 11.4 5.7 2.7 55 3.8 NE 22 26 12 14 1012.8 1012.8 0.0
31/07:00am 12.1 6.5 3.6 56 3.8 NNE 22 28 12 15 1012.5 1012.5 0.0
31/06:30am 11.2 6.1 4.0 61 3.2 NE 20 26 11 14 1012.4 1012.4 0.0
31/06:00am 11.6 6.4 3.6 58 3.5 NE 20 24 11 13 1012.7 1012.7 0.0
31/05:30am 11.6 7.6 2.9 55 3.8 NNE 13 19 7 10 1012.9 1012.9 0.0
31/05:00am 11.6 6.6 4.6 62 3.2 NE 20 22 11 12 1013.1 1013.1 0.0
31/04:30am 11.7 7.4 5.3 65 3.0 NE 17 19 9 10 1013.5 1013.5 0.0
31/04:00am 12.5 9.8 5.7 63 3.2 NNE 9 15 5 8 1013.2 1013.2 0.0
31/03:30am 12.0 10.5 6.7 70 2.5 NNW 4 7 2 4 1013.8 1013.8 0.0
31/03:00am 10.0 8.2 3.5 64 2.8 NNE 2 4 1 2 1014.4 1014.5 0.0
31/02:30am 10.6 8.0 3.2 60 3.2 SW 6 9 3 5 1013.9 1013.9 0.0
31/02:00am 11.6 8.9 2.9 55 3.8 S 6 9 3 5 1013.8 1013.8 0.0
31/01:30am 12.5 5.6 4.7 59 3.6 ENE 30 32 16 17 1013.2 1013.2 0.0
31/01:00am 12.7 6.3 5.1 60 3.5 NE 28 32 15 17 1013.4 1013.4 0.0
31/12:30am 12.3 5.9 5.0 61 3.4 ENE 28 30 15 16 1013.7 1013.7 0.0
31/12:00am 12.1 6.0 4.8 61 3.3 ENE 26 28 14 15 1013.9 1013.9 0.0
 
Date/Time
CST
Temp
°C
App
Temp
°C
Dew
Point
Rel
Hum
%
Delta-T
°C
Wind Press
QNH
hPa
Press
MSL
hPa
Rain
since 9 am
mm
Dir
 
Spd
km/h
Gust
km/h
Spd
kts
Gust
kts
30/11:30pm 11.8 5.5 3.6 57 3.6 NE 26 28 14 15 1014.1 1014.1 0.0
30/11:00pm 12.2 5.6 2.1 50 4.4 NE 26 28 14 15 1014.4 1014.5 0.0
30/10:30pm 12.4 6.2 2.3 50 4.4 NE 24 26 13 14 1014.7 1014.8 0.0
30/10:00pm 12.9 6.7 1.9 47 4.8 NE 24 26 13 14 1015.1 1015.2 0.0
30/09:30pm 12.8 7.0 2.1 48 4.6 NE 22 24 12 13 1015.3 1015.4 0.0
30/09:00pm 13.2 7.4 2.4 48 4.7 NE 22 24 12 13 1015.4 1015.5 0.0
30/08:30pm 13.4 7.7 2.9 49 4.7 NNE 22 24 12 13 1015.5 1015.6 0.0
30/08:00pm 13.6 8.4 3.4 50 4.6 NNE 20 22 11 12 1015.6 1015.7 0.0
30/07:30pm 14.7 10.3 4.7 51 4.7 NNE 17 19 9 10 1015.6 1015.7 0.0
30/07:00pm 14.5 9.7 4.8 52 4.5 NNE 19 19 10 10 1015.7 1015.8 0.0
30/06:30pm 17.6 12.6 3.5 39 6.6 N 19 20 10 11 1015.8 1015.9 0.0
30/06:00pm 18.4 13.8 3.5 37 7.0 N 17 17 9 9 1015.8 1015.9 0.0
30/05:30pm 19.9 15.2 3.2 33 7.9 N 17 20 9 11 1015.8 1015.9 0.0
30/05:00pm 20.4 15.4 3.6 33 8.0 N 19 22 10 12 1016.0 1016.1 0.0
30/04:30pm 19.0 15.9 7.4 47 5.9 NNW 13 17 7 9 1016.0 1016.1 0.0
30/04:00pm 18.8 15.8 7.9 49 5.6 NNW 13 19 7 10 1016.3 1016.4 0.0
30/03:30pm 18.5 15.2 8.2 51 5.3 NNW 15 17 8 9 1016.7 1016.8 0.0
30/03:00pm 19.0 16.1 8.1 49 5.6 NNW 13 17 7 9 1016.7 1016.8 0.0
30/02:30pm 18.7 15.0 8.1 50 5.4 NNW 17 20 9 11 1017.1 1017.2 0.0
30/02:00pm 20.0 15.8 7.4 44 6.4 NNW 19 26 10 14 1017.3 1017.4 0.0
30/01:30pm 18.9 14.8 8.0 49 5.6 NNW 19 22 10 12 1017.8 1017.9 0.0
30/01:00pm 21.5 16.2 7.0 39 7.4 NNW 24 32 13 17 1018.4 1018.4 0.0
30/12:30pm 21.4 15.7 6.5 38 7.5 NNW 26 37 14 20 1019.1 1019.1 0.0
30/12:00pm 21.8 14.4 3.9 31 8.6 NNW 32 43 17 23 1019.5 1019.5 0.0
30/11:30am 21.7 13.2 0.8 25 9.5 N 35 52 19 28 1019.8 1019.8 0.0
30/11:00am 21.3 12.5 1.6 27 9.1 N 37 52 20 28 1020.1 1020.1 0.0
30/10:40am 21.1 13.3 1.4 27 9.0 N 32 50 17 27 1020.4 1020.4 0.0
30/10:30am 20.4 13.7 3.6 33 8.0 N 28 41 15 22 1020.6 1020.6 0.0
30/10:00am 18.0 12.7 4.9 42 6.3 NNE 22 33 12 18 1021.0 1021.0 0.0
30/09:30am 14.6 9.2 6.2 57 4.0 NE 24 30 13 16 1020.9 1020.9 0.0
30/09:00am 12.1 6.1 5.3 63 3.1 NE 26 32 14 17 1021.3 1021.3 0.0
30/08:30am 10.4 4.2 4.1 65 2.8 NE 26 30 14 16 1021.3 1021.3 0.0
30/08:00am 9.6 3.6 3.4 65 2.7 NE 24 28 13 15 1021.3 1021.3 0.0
30/07:30am 8.3 2.2 2.8 68 2.3 NE 24 26 13 14 1021.3 1021.3 0.0
30/07:00am 7.8 0.9 2.7 70 2.1 NE 28 32 15 17 1021.0 1021.0 0.0
30/06:30am 8.1 1.6 2.6 68 2.3 NE 26 30 14 16 1020.7 1020.7 0.0
30/06:00am 8.1 1.2 2.6 68 2.3 NE 28 32 15 17 1020.5 1020.5 0.0
30/05:30am 8.1 1.2 2.8 69 2.2 NE 28 28 15 15 1020.5 1020.5 0.0
30/05:00am 8.1 1.3 3.2 71 2.1 NE 28 28 15 15 1020.5 1020.5 0.0
30/04:30am 8.3 1.5 3.2 70 2.2 NE 28 30 15 16 1020.6 1020.6 0.0
30/04:00am 8.8 2.1 3.8 71 2.2 NE 28 30 15 16 1020.8 1020.8 0.0
30/03:30am 9.0 2.4 4.0 71 2.2 NE 28 32 15 17 1021.0 1021.0 0.0
30/03:00am 8.9 2.2 3.9 71 2.2 NE 28 30 15 16 1021.4 1021.4 0.0
30/02:30am 9.6 3.1 4.6 71 2.2 NE 28 30 15 16 1021.7 1021.7 0.0
30/02:00am 9.4 3.3 5.0 74 2.0 NE 26 28 14 15 1021.9 1021.9 0.0
30/01:30am 9.4 4.1 4.8 73 2.0 NE 22 28 12 15 1022.1 1022.1 0.0
30/01:00am 9.4 4.4 6.5 82 1.3 NNE 22 24 12 13 1022.1 1022.1 0.0
30/12:30am 9.7 4.9 7.5 86 1.0 NE 22 24 12 13 1022.1 1022.1 0.0
30/12:00am 10.1 5.4 7.7 85 1.1 NE 22 24 12 13 1022.3 1022.3 0.0
 
Date/Time
CST
Temp
°C
App
Temp
°C
Dew
Point
Rel
Hum
%
Delta-T
°C
Wind Press
QNH
hPa
Press
MSL
hPa
Rain
since 9 am
mm
Dir
 
Spd
km/h
Gust
km/h
Spd
kts
Gust
kts
29/11:30pm 10.5 6.3 8.1 85 1.2 NE 20 22 11 12 1022.5 1022.5 0.0
29/11:00pm 11.3 7.0 8.0 80 1.6 NE 20 22 11 12 1022.6 1022.6 0.0
29/10:30pm 11.5 7.2 8.0 79 1.7 NE 20 20 11 11 1022.9 1022.9 0.0
29/10:00pm 12.5 8.3 8.2 75 2.1 NE 20 22 11 12 1023.0 1023.0 0.0
29/09:30pm 12.5 8.3 8.2 75 2.1 NE 20 22 11 12 1023.0 1023.0 0.0
29/09:00pm 13.5 9.3 8.4 71 2.5 NE 20 22 11 12 1023.0 1023.0 0.0
29/08:30pm 13.7 9.7 8.3 70 2.7 NE 19 20 10 11 1023.0 1023.0 0.0
29/08:00pm 14.7 10.5 8.4 66 3.2 NE 20 22 11 12 1022.9 1022.9 0.0
29/07:30pm 14.9 11.0 8.6 66 3.2 NE 19 20 10 11 1022.8 1022.8 0.0
29/07:00pm 15.4 12.2 8.4 63 3.5 NE 15 17 8 9 1022.8 1022.8 0.0
29/06:30pm 19.0 14.3 3.2 35 7.4 N 17 19 9 10 1022.6 1022.6 0.0
29/06:00pm 17.8 14.6 6.7 48 5.5 N 13 17 7 9 1022.5 1022.5 0.0
29/05:30pm 20.3 19.3 7.3 43 6.6 W 2 4 1 2 1022.5 1022.5 0.0
29/05:00pm 21.6 20.7 7.8 41 7.2 W 2 4 1 2 1022.5 1022.5 0.0
29/04:30pm 22.0 20.4 6.3 36 7.9 WSW 4 9 2 5 1022.6 1022.6 0.0
29/04:00pm 22.1 20.9 8.2 41 7.3 SW 4 7 2 4 1022.7 1022.7 0.0
29/03:30pm 22.2 20.4 7.2 38 7.7 NW 6 9 3 5 1023.0 1023.0 0.0
29/03:00pm 22.1 19.3 7.1 38 7.7 NW 11 20 6 11 1023.2 1023.2 0.0
29/02:30pm 24.2 19.8 6.5 32 9.1 N 19 28 10 15 1023.4 1023.4 0.0
29/02:00pm 24.3 19.4 5.1 29 9.7 N 20 26 11 14 1023.6 1023.6 0.0
29/01:30pm 24.1 19.3 5.5 30 9.4 NNE 20 28 11 15 1023.9 1023.9 0.0
29/01:00pm 22.4 19.8 7.8 39 7.6 NNW 11 19 6 10 1024.5 1024.5 0.0
29/12:30pm 22.9 19.8 9.0 41 7.4 N 15 30 8 16 1025.2 1025.2 0.0
29/12:00pm 22.8 17.3 6.1 34 8.4 N 24 33 13 18 1025.7 1025.7 0.0
29/11:30am 22.1 16.6 5.9 35 8.1 N 24 32 13 17 1026.3 1026.3 0.0
29/11:00am 19.9 16.7 10.0 53 5.3 NE 17 22 9 12 1026.6 1026.6 0.0
29/10:30am 18.5 15.0 8.7 53 5.1 NE 17 22 9 12 1026.9 1026.9 0.0
29/10:00am 16.6 12.7 9.3 62 3.8 NE 20 24 11 13 1027.0 1027.0 0.0
29/09:30am 14.6 10.2 8.8 68 2.9 NE 22 28 12 15 1027.0 1027.0 0.0
29/09:00am 13.4 8.1 8.3 71 2.5 NE 26 30 14 16 1027.1 1027.1 0.0
29/08:30am 12.3 7.4 8.4 77 1.9 NE 24 28 13 15 1027.0 1027.0 0.0
29/08:00am 11.3 6.2 7.8 79 1.7 NE 24 28 13 15 1026.7 1026.7 0.0
29/07:30am 10.5 5.2 7.0 79 1.6 NE 24 26 13 14 1026.5 1026.5 0.0
29/07:00am 10.2 4.9 6.7 79 1.6 NE 24 26 13 14 1026.3 1026.3 0.0
29/06:30am 10.6 5.4 7.1 79 1.7 NE 24 26 13 14 1025.9 1025.9 0.0
29/06:00am 10.2 5.3 6.7 79 1.6 NE 22 24 12 13 1025.7 1025.7 0.0
29/05:30am 10.4 5.5 6.7 78 1.7 NE 22 24 12 13 1025.6 1025.6 0.0
29/05:00am 11.5 6.6 7.0 74 2.2 NE 22 24 12 13 1025.5 1025.5 0.0
29/04:30am 11.6 6.7 6.7 72 2.3 NNE 22 24 12 13 1025.5 1025.5 0.0
29/04:00am 11.1 6.3 7.2 77 1.9 NNE 22 24 12 13 1025.6 1025.6 0.0
29/03:30am 10.6 5.7 6.9 78 1.7 NNE 22 24 12 13 1025.6 1025.6 0.0
29/03:00am 11.6 6.3 6.9 73 2.2 NE 24 26 13 14 1025.8 1025.8 0.0
29/02:30am 12.1 6.8 7.0 71 2.4 NNE 24 26 13 14 1026.0 1026.0 0.0
29/02:00am 13.1 8.1 6.5 64 3.2 NNE 22 26 12 14 1026.4 1026.4 0.0
29/01:30am 13.7 8.6 6.1 60 3.6 NE 22 26 12 14 1026.6 1026.6 0.0
29/01:00am 14.3 9.2 5.9 57 4.0 NNE 22 26 12 14 1026.5 1026.5 0.0
29/12:30am 14.3 9.2 5.9 57 4.0 NNE 22 26 12 14 1026.5 1026.5 0.0
29/12:00am 13.4 8.7 5.1 57 3.8 NNE 19 20 10 11 1026.4 1026.4 0.0
 
Date/Time
CST
Temp
°C
App
Temp
°C
Dew
Point
Rel
Hum
%
Delta-T
°C
Wind Press
QNH
hPa
Press
MSL
hPa
Rain
since 9 am
mm
Dir
 
Spd
km/h
Gust
km/h
Spd
kts
Gust
kts
28/11:30pm 13.5 8.7 4.9 56 4.0 NNE 19 20 10 11 1026.4 1026.4 0.0
28/11:00pm 13.6 9.3 5.3 57 3.9 NNE 17 20 9 11 1026.4 1026.4 0.0
28/10:30pm 14.1 9.9 5.7 57 4.0 NNE 17 20 9 11 1026.5 1026.5 0.0
28/10:00pm 14.3 9.8 5.9 57 4.0 NNE 19 20 10 11 1026.5 1026.5 0.0
28/09:30pm 14.3 10.4 6.9 61 3.6 NNE 17 19 9 10 1026.5 1026.5 0.0
28/09:00pm 11.9 9.2 8.9 82 1.5 NE 13 15 7 8 1026.6 1026.6 0.0
28/08:30pm 11.7 9.2 8.2 79 1.7 ENE 11 11 6 6 1026.6 1026.6 0.0
28/08:00pm 12.9 10.7 8.0 72 2.4 E 9 11 5 6 1026.3 1026.3 0.0
28/07:30pm 13.2 11.7 8.3 72 2.4 E 6 9 3 5 1026.3 1026.3 0.0
28/07:00pm 13.6 11.8 7.8 68 2.9 ESE 7 9 4 5 1025.7 1025.7 0.0
28/06:30pm 14.1 12.1 7.2 63 3.4 E 7 11 4 6 1025.6 1025.6 0.0
28/06:00pm 16.9 15.1 7.3 53 4.8 SE 6 9 3 5 1025.2 1025.2 0.0
28/05:30pm 18.7 17.7 7.5 48 5.7 SW 2 4 1 2 1025.4 1025.4 0.0
28/05:00pm 19.2 19.5 11.0 59 4.5 CALM 0 0 0 0 1025.3 1025.3 0.0
28/04:30pm 20.1 18.8 6.1 40 6.9 SW 2 2 1 1 1025.4 1025.4 0.0
28/04:00pm 20.5 19.2 7.5 43 6.7 SW 4 6 2 3 1025.4 1025.4 0.0
28/03:30pm 21.4 19.4 7.3 40 7.2 WNW 7 11 4 6 1025.6 1025.6 0.0
28/03:00pm 20.2 19.0 9.7 51 5.6 W 6 9 3 5 1025.7 1025.7 0.0
28/02:30pm 21.2 19.5 8.5 44 6.6 W 7 11 4 6 1025.8 1025.8 0.0
28/02:00pm 20.2 19.5 11.9 59 4.6 W 7 11 4 6 1026.0 1026.0 0.0
28/01:30pm 20.4 19.0 10.8 54 5.2 W 9 13 5 7 1026.1 1026.1 0.0
28/01:00pm 21.4 19.3 9.6 47 6.3 NW 11 15 6 8 1026.5 1026.5 0.0
28/12:30pm 21.5 19.6 10.6 50 5.9 NNW 11 15 6 8 1026.7 1026.7 0.0
28/12:00pm 21.8 20.8 9.0 44 6.8 ENE 4 7 2 4 1027.0 1027.0 0.0
28/11:30am 19.1 18.3 10.9 59 4.4 SW 6 9 3 5 1027.4 1027.4 0.0
28/11:00am 19.8 18.0 9.4 51 5.5 ENE 9 13 5 7 1027.6 1027.6 0.0
28/10:30am 18.3 15.2 10.2 59 4.3 NE 17 22 9 12 1027.3 1027.3 0.0
28/10:00am 15.5 11.5 9.2 66 3.2 NE 20 24 11 13 1027.6 1027.6 0.0

Other Formats:

Comma delimited format used in spreadsheet applications
http://www.bom.gov.au/fwo/IDS60801/IDS60801.94658.axf

JavaScript Object Notation format (JSON) in row-major order
http://www.bom.gov.au/fwo/IDS60801/IDS60801.94658.json